Time;durP1;ratioP1;P1;durP2;ratioP2;P2;SDS_P1;SDS_P2;PMS_P1;PMS_P2;Temp;Humidity;BMP_temperature;BMP_pressure;BME280_temperature;BME280_humidity;BME280_pressure;Samples;Min_cycle;Max_cycle;Signal;HPM_P1;HPM_P2
2023/07/10 00:01:32;;;;;;;7.93;4.82;;;;;;;19.45;100.00;101902.56;5032660;28;20048;-75
2023/07/10 00:03:57;;;;;;;9.75;5.18;;;;;;;19.48;100.00;101902.09;5021549;28;20484;-75
2023/07/10 00:06:23;;;;;;;7.85;3.95;;;;;;;19.44;100.00;101899.03;5051473;28;20032;-75
2023/07/10 00:08:49;;;;;;;15.93;4.88;;;;;;;19.41;100.00;101895.94;5051639;28;20028;-75
2023/07/10 00:11:17;;;;;;;8.10;3.80;;;;;;;19.43;100.00;101899.25;5016350;28;20409;-75
2023/07/10 00:13:43;;;;;;;9.25;4.55;;;;;;;19.36;100.00;101902.06;5032384;28;20099;-75
2023/07/10 00:16:17;;;;;;;13.25;6.63;;;;;;;19.34;100.00;101895.25;5051479;28;20491;-75
2023/07/10 00:18:42;;;;;;;12.77;5.57;;;;;;;19.35;100.00;101915.81;5051530;28;20103;-75
2023/07/10 00:21:08;;;;;;;15.40;6.28;;;;;;;19.34;100.00;101909.59;5033584;28;20123;-75
2023/07/10 00:23:34;;;;;;;11.77;4.95;;;;;;;19.32;100.00;101908.16;5051381;28;20150;-75
2023/07/10 00:25:59;;;;;;;11.93;5.72;;;;;;;19.24;100.00;101909.31;5051302;28;20575;-76
2023/07/10 00:28:25;;;;;;;13.57;6.35;;;;;;;19.24;100.00;101903.91;5048418;28;20038;-76
2023/07/10 00:30:51;;;;;;;12.13;5.88;;;;;;;19.21;100.00;101897.06;5032118;28;20100;-76
2023/07/10 00:33:19;;;;;;;11.02;5.40;;;;;;;19.16;100.00;101893.41;5032175;28;20123;-75
2023/07/10 00:35:44;;;;;;;10.80;5.43;;;;;;;19.16;100.00;101905.03;5025938;28;20029;-75
2023/07/10 00:38:28;;;;;;;10.43;5.75;;;;;;;19.23;100.00;101904.94;5050841;28;20558;-75
2023/07/10 00:40:54;;;;;;;9.32;4.60;;;;;;;19.18;100.00;101902.94;5033012;28;20472;-75
2023/07/10 00:43:31;;;;;;;13.57;5.90;;;;;;;19.17;100.00;101906.66;5050666;28;20029;-75
2023/07/10 00:46:09;;;;;;;12.15;5.88;;;;;;;19.14;100.00;101888.19;5050709;28;20033;-75
2023/07/10 00:48:42;;;;;;;14.98;5.57;;;;;;;19.07;100.00;101895.56;5035822;28;20034;-75
2023/07/10 00:51:26;;;;;;;12.82;6.03;;;;;;;19.07;100.00;101897.44;5013988;28;20465;-75
2023/07/10 00:53:54;;;;;;;11.32;5.22;;;;;;;18.99;100.00;101891.31;5031598;28;20056;-75
2023/07/10 00:56:22;;;;;;;13.80;7.05;;;;;;;18.96;100.00;101899.03;5031594;28;20070;-75
2023/07/10 00:58:49;;;;;;;12.60;5.78;;;;;;;18.93;100.00;101916.53;5031515;28;20034;-75
2023/07/10 01:01:20;;;;;;;12.18;5.88;;;;;;;18.81;100.00;101912.94;5029832;28;20404;-75
2023/07/10 01:03:48;;;;;;;10.93;6.15;;;;;;;18.80;100.00;101920.22;5050625;28;20025;-75
2023/07/10 01:06:29;;;;;;;10.85;5.35;;;;;;;18.81;100.00;101921.03;5050109;28;20116;-75
2023/07/10 01:08:57;;;;;;;10.68;5.32;;;;;;;18.76;100.00;101912.81;5050073;28;20037;-75
2023/07/10 01:11:23;;;;;;;13.73;6.63;;;;;;;18.72;100.00;101919.69;5050242;28;20503;-75
2023/07/10 01:13:51;;;;;;;10.90;5.53;;;;;;;18.69;100.00;101920.94;5050201;28;20057;-75
2023/07/10 01:16:18;;;;;;;11.93;5.47;;;;;;;18.67;100.00;101896.03;5035420;28;20033;-75
2023/07/10 01:18:44;;;;;;;10.73;5.68;;;;;;;18.65;100.00;101900.81;5031141;28;20481;-75
2023/07/10 01:21:18;;;;;;;8.57;5.88;;;;;;;18.65;100.00;101903.53;5031177;28;20095;-75
2023/07/10 01:23:44;;;;;;;13.05;5.20;;;;;;;18.59;100.00;101909.84;5049075;28;20040;-75
2023/07/10 01:26:09;;;;;;;13.65;6.53;;;;;;;18.57;100.00;101920.84;5030197;28;20033;-75
2023/07/10 01:28:35;;;;;;;15.20;5.68;;;;;;;18.52;100.00;101922.56;5042912;28;20036;-75
2023/07/10 01:31:08;;;;;;;7.43;4.95;;;;;;;18.47;100.00;101927.81;5049882;28;20029;-75
2023/07/10 01:33:41;;;;;;;8.75;4.78;;;;;;;18.34;100.00;101913.41;5049883;28;20025;-75
2023/07/10 01:36:08;;;;;;;9.57;5.43;;;;;;;18.36;100.00;101921.28;5049657;28;20033;-75
2023/07/10 01:39:21;;;;;;;10.38;4.65;;;;;;;18.40;100.00;101920.63;5032077;28;20495;-75
2023/07/10 01:41:46;;;;;;;13.43;5.53;;;;;;;18.35;100.00;101904.25;5020041;28;20128;-75
2023/07/10 01:44:27;;;;;;;18.88;5.57;;;;;;;18.36;100.00;101900.50;5049971;28;20466;-75
2023/07/10 01:46:53;;;;;;;10.00;4.95;;;;;;;18.35;100.00;101898.03;5043811;28;20112;-75
2023/07/10 01:49:23;;;;;;;9.75;5.25;;;;;;;18.24;100.00;101896.88;5030454;28;20040;-75
2023/07/10 01:51:49;;;;;;;9.65;5.22;;;;;;;18.27;100.00;101903.72;5030554;28;20025;-75
2023/07/10 01:54:16;;;;;;;10.55;5.65;;;;;;;18.24;100.00;101899.59;5029792;28;20077;-75
2023/07/10 01:56:42;;;;;;;9.63;5.55;;;;;;;18.23;100.00;101922.22;5030541;28;20036;-75
2023/07/10 01:59:08;;;;;;;11.50;5.57;;;;;;;18.13;100.00;101911.09;5030326;28;20021;-75
2023/07/10 02:01:33;;;;;;;8.40;4.20;;;;;;;18.15;100.00;101923.31;5030426;28;20045;-75
2023/07/10 02:03:59;;;;;;;10.05;4.95;;;;;;;18.13;100.00;101930.00;5030250;28;20036;-75
2023/07/10 02:06:25;;;;;;;7.90;4.45;;;;;;;18.11;100.00;101922.13;5030374;28;20033;-75
2023/07/10 02:08:50;;;;;;;9.75;5.18;;;;;;;18.13;100.00;101913.78;5030307;28;20030;-75
2023/07/10 02:11:16;;;;;;;9.93;5.47;;;;;;;18.10;100.00;101893.50;5030026;28;20507;-75
2023/07/10 02:13:41;;;;;;;10.85;4.82;;;;;;;18.12;100.00;101898.66;5030136;28;20037;-75
2023/07/10 02:16:10;;;;;;;12.90;4.75;;;;;;;18.06;100.00;101907.66;5012566;28;20033;-75
2023/07/10 02:18:35;;;;;;;8.40;4.50;;;;;;;18.04;100.00;101913.25;5042703;28;20499;-75
2023/07/10 02:21:01;;;;;;;14.60;6.20;;;;;;;17.98;100.00;101919.53;5049122;28;20029;-75
2023/07/10 02:23:26;;;;;;;14.45;3.83;;;;;;;17.96;100.00;101910.81;5049062;28;20028;-75
2023/07/10 02:25:51;;;;;;;15.85;5.63;;;;;;;17.92;100.00;101907.75;5014637;28;20068;-75
2023/07/10 02:28:17;;;;;;;7.40;4.72;;;;;;;17.94;100.00;101918.31;5018840;28;20033;-75
2023/07/10 02:30:42;;;;;;;9.25;4.50;;;;;;;17.95;100.00;101920.81;5034495;28;20028;-75
2023/07/10 02:33:07;;;;;;;10.18;4.43;;;;;;;18.00;100.00;101924.69;5049004;28;20852;-75
2023/07/10 02:35:33;;;;;;;6.30;3.72;;;;;;;17.98;100.00;101924.13;5048785;28;20139;-75
2023/07/10 02:37:58;;;;;;;9.35;4.57;;;;;;;18.01;100.00;101923.66;5031151;28;20036;-75
2023/07/10 02:40:24;;;;;;;8.75;3.10;;;;;;;17.95;100.00;101931.59;5048826;28;20114;-75
2023/07/10 02:42:49;;;;;;;9.65;3.08;;;;;;;17.96;100.00;101929.72;5019203;28;20045;-75
2023/07/10 02:45:15;;;;;;;5.97;3.35;;;;;;;17.94;100.00;101926.41;5029777;28;20026;-75
2023/07/10 02:47:40;;;;;;;10.85;3.80;;;;;;;17.98;100.00;101926.81;5029603;28;20030;-75
2023/07/10 02:50:09;;;;;;;7.47;3.60;;;;;;;17.98;100.00;101922.25;5033864;28;20151;-75
2023/07/10 02:52:34;;;;;;;6.97;4.05;;;;;;;18.07;100.00;101930.88;5048521;28;20123;-75
2023/07/10 02:54:59;;;;;;;9.05;3.67;;;;;;;18.03;100.00;101917.00;5048816;28;20182;-75
2023/07/10 02:57:25;;;;;;;9.38;4.82;;;;;;;18.04;100.00;101924.03;5048543;28;20025;-75
2023/07/10 02:59:50;;;;;;;6.03;3.35;;;;;;;18.04;100.00;101945.66;5048612;28;20438;-75
2023/07/10 03:02:16;;;;;;;7.80;4.13;;;;;;;18.01;100.00;101938.00;5030756;28;20373;-75
2023/07/10 03:04:41;;;;;;;8.90;4.30;;;;;;;17.95;100.00;101941.59;5048714;28;20033;-75
2023/07/10 03:07:06;;;;;;;9.55;4.53;;;;;;;17.92;100.00;101945.53;5047719;28;20953;-75
2023/07/10 03:09:32;;;;;;;8.95;4.82;;;;;;;17.87;100.00;101936.44;5050455;28;20908;-75
2023/07/10 03:11:57;;;;;;;6.88;3.60;;;;;;;17.85;100.00;101947.44;5033540;28;20030;-75
2023/07/10 03:14:22;;;;;;;11.52;5.13;;;;;;;17.83;100.00;101944.13;5033543;28;20064;-75
2023/07/10 03:16:48;;;;;;;5.60;3.80;;;;;;;17.83;100.00;101957.63;5033997;28;20485;-75
2023/07/10 03:19:13;;;;;;;9.20;4.07;;;;;;;17.83;100.00;101949.53;5034532;28;20170;-75
2023/07/10 03:21:38;;;;;;;8.35;3.55;;;;;;;17.84;100.00;101953.06;5052357;28;20388;-75
2023/07/10 03:24:04;;;;;;;7.60;4.20;;;;;;;17.81;100.00;101962.41;5018021;28;20107;-75
2023/07/10 03:26:30;;;;;;;10.45;4.30;;;;;;;17.77;100.00;101966.56;5052439;28;20033;-75
2023/07/10 03:29:21;;;;;;;8.38;3.83;;;;;;;17.82;100.00;101972.19;5047695;28;20037;-75
2023/07/10 03:31:47;;;;;;;8.15;4.10;;;;;;;17.71;100.00;101962.88;5028413;28;20120;-75
2023/07/10 03:34:13;;;;;;;8.73;3.90;;;;;;;17.77;100.00;101971.16;5015547;28;20544;-75
2023/07/10 03:36:39;;;;;;;6.53;4.07;;;;;;;17.71;100.00;101973.66;5033206;28;20034;-75
2023/07/10 03:39:04;;;;;;;7.38;3.90;;;;;;;17.71;100.00;101972.81;5051981;28;20083;-75
2023/07/10 03:41:30;;;;;;;7.65;4.78;;;;;;;17.69;100.00;101969.53;5052001;28;20040;-75
2023/07/10 03:43:55;;;;;;;16.55;4.10;;;;;;;17.66;100.00;101969.97;5051901;28;20036;-75
2023/07/10 03:46:21;;;;;;;8.15;4.93;;;;;;;17.64;100.00;101977.44;5047959;28;20025;-75
2023/07/10 03:48:47;;;;;;;6.90;4.55;;;;;;;17.58;100.00;101970.19;5041651;28;20147;-75
2023/07/10 03:51:14;;;;;;;9.57;4.40;;;;;;;17.56;100.00;101981.22;5032855;28;20032;-75
2023/07/10 03:53:39;;;;;;;6.97;4.32;;;;;;;17.59;100.00;101977.25;5032535;28;20095;-75
2023/07/10 03:56:05;;;;;;;7.47;4.35;;;;;;;17.56;100.00;101977.72;5032647;28;20025;-75
2023/07/10 03:58:33;;;;;;;7.05;4.38;;;;;;;17.51;100.00;101970.25;5014911;28;20158;-75
2023/07/10 04:01:00;;;;;;;9.48;4.53;;;;;;;17.48;100.00;101971.50;5032544;28;20040;-75
2023/07/10 04:03:28;;;;;;;9.75;5.07;;;;;;;17.45;100.00;101977.34;5026604;28;20037;-75
2023/07/10 04:05:56;;;;;;;9.68;4.32;;;;;;;17.45;100.00;101980.03;5019016;28;20033;-75
2023/07/10 04:08:24;;;;;;;10.73;6.18;;;;;;;17.44;100.00;101982.94;5046991;28;20028;-75
2023/07/10 04:10:51;;;;;;;7.30;4.70;;;;;;;17.40;100.00;101985.25;5050224;28;20028;-76
2023/07/10 04:13:17;;;;;;;10.07;4.85;;;;;;;17.38;100.00;101986.50;5032322;28;20095;-75
2023/07/10 04:16:13;;;;;;;7.28;4.28;;;;;;;17.39;100.00;101990.84;5032338;28;20025;-75
2023/07/10 04:18:41;;;;;;;14.60;5.72;;;;;;;17.37;100.00;101992.91;5013130;28;20041;-75
2023/07/10 04:21:11;;;;;;;8.57;5.30;;;;;;;17.40;100.00;101993.34;5014621;28;20168;-75
2023/07/10 04:23:36;;;;;;;8.65;5.80;;;;;;;17.40;100.00;102003.28;5047945;28;20039;-75
2023/07/10 04:26:02;;;;;;;13.10;6.65;;;;;;;17.40;100.00;102000.59;5032077;28;20393;-75
2023/07/10 04:28:27;;;;;;;15.38;5.93;;;;;;;17.37;100.00;101993.78;5038331;28;20037;-75
2023/07/10 04:30:54;;;;;;;12.75;5.85;;;;;;;17.38;100.00;101992.72;5051022;28;21052;-76
2023/07/10 04:33:20;;;;;;;14.30;6.35;;;;;;;17.46;100.00;102000.56;5032039;28;20112;-75
2023/07/10 04:35:54;;;;;;;8.93;5.97;;;;;;;17.48;100.00;101995.78;5031912;28;20399;-76
2023/07/10 04:38:22;;;;;;;13.50;6.30;;;;;;;17.51;100.00;101994.53;5031978;28;20013;-75
2023/07/10 04:41:02;;;;;;;11.13;6.20;;;;;;;17.56;100.00;102001.97;5031865;28;20045;-75
2023/07/10 04:43:30;;;;;;;12.73;6.97;;;;;;;17.58;100.00;101997.19;5031646;28;20493;-75
2023/07/10 04:45:57;;;;;;;10.70;6.50;;;;;;;17.63;100.00;101998.22;5038200;28;20067;-76
2023/07/10 04:48:23;;;;;;;14.88;6.28;;;;;;;17.63;100.00;101986.56;5050611;28;20025;-76
2023/07/10 04:50:51;;;;;;;10.70;6.28;;;;;;;17.70;100.00;101998.16;5007626;28;20397;-75
2023/07/10 04:53:18;;;;;;;14.48;6.32;;;;;;;17.73;100.00;102008.50;5044504;28;20045;-76
2023/07/10 04:55:44;;;;;;;11.88;6.88;;;;;;;17.80;100.00;102009.34;5016289;28;20040;-76
2023/07/10 04:58:10;;;;;;;11.77;6.57;;;;;;;17.80;100.00;102003.94;5044058;28;20036;-75
2023/07/10 05:00:36;;;;;;;17.90;6.00;;;;;;;17.85;100.00;102009.53;5031434;28;20445;-76
2023/07/10 05:03:03;;;;;;;12.68;6.72;;;;;;;17.92;100.00;102006.78;5033866;28;20082;-76
2023/07/10 05:05:29;;;;;;;9.60;6.20;;;;;;;17.94;100.00;102007.38;5031273;28;20056;-75
2023/07/10 05:07:54;;;;;;;12.00;5.60;;;;;;;17.94;100.00;102019.00;5013736;28;20071;-76
2023/07/10 05:10:20;;;;;;;10.43;5.78;;;;;;;18.05;100.00;102017.50;4997037;28;20431;-76
2023/07/10 05:12:45;;;;;;;12.50;5.85;;;;;;;18.05;100.00;102013.97;5031227;28;20048;-76
2023/07/10 05:15:11;;;;;;;12.60;7.00;;;;;;;18.03;100.00;102022.28;5040064;28;20070;-75
2023/07/10 05:17:36;;;;;;;9.90;5.80;;;;;;;18.12;100.00;102025.56;5050047;28;20510;-76
2023/07/10 05:20:02;;;;;;;10.57;5.20;;;;;;;18.17;100.00;102031.13;5038286;28;20037;-76
2023/07/10 05:22:28;;;;;;;13.32;6.63;;;;;;;18.18;100.00;102025.53;5049875;28;20064;-76
2023/07/10 05:24:53;;;;;;;11.80;4.72;;;;;;;18.22;100.00;102025.91;5049869;28;20056;-76
2023/07/10 05:27:18;;;;;;;9.90;4.88;;;;;;;18.22;100.00;102033.19;5046260;28;20033;-76
2023/07/10 05:29:44;;;;;;;10.00;5.10;;;;;;;18.23;100.00;102029.41;5048898;28;20025;-76
2023/07/10 05:32:09;;;;;;;10.98;4.72;;;;;;;18.29;100.00;102037.50;5048692;28;20460;-76
2023/07/10 05:34:35;;;;;;;9.85;4.13;;;;;;;18.33;100.00;102032.47;5030861;28;20034;-77
2023/07/10 05:37:00;;;;;;;11.40;4.85;;;;;;;18.36;100.00;102038.25;5003660;28;20821;-76
2023/07/10 05:39:29;;;;;;;8.38;4.85;;;;;;;18.37;100.00;102034.50;5049755;28;20082;-77
2023/07/10 05:41:55;;;;;;;12.07;4.55;;;;;;;18.45;100.00;102029.91;5049641;28;20028;-76
2023/07/10 05:44:21;;;;;;;10.23;4.30;;;;;;;18.47;100.00;102034.03;5049519;28;20115;-76
2023/07/10 05:46:46;;;;;;;9.45;4.95;;;;;;;18.51;100.00;102034.41;5049521;28;20041;-76
2023/07/10 05:49:11;;;;;;;11.25;4.90;;;;;;;18.52;100.00;102033.34;5001705;28;20037;-76
2023/07/10 05:51:37;;;;;;;8.60;4.38;;;;;;;18.50;100.00;102022.78;5030378;28;20036;-76
2023/07/10 05:54:02;;;;;;;12.88;5.25;;;;;;;18.65;100.00;102041.34;5014116;28;20405;-76
2023/07/10 05:56:28;;;;;;;11.02;5.22;;;;;;;18.64;100.00;102026.19;5019370;28;20026;-76
2023/07/10 05:58:53;;;;;;;14.75;4.90;;;;;;;18.86;100.00;102028.50;5021414;28;20029;-76
2023/07/10 06:01:18;;;;;;;13.25;4.90;;;;;;;19.14;100.00;102030.72;5024271;28;20030;-76
2023/07/10 06:03:44;;;;;;;8.20;3.83;;;;;;;19.86;100.00;102042.56;5009927;28;20116;-76
2023/07/10 06:06:09;;;;;;;12.40;5.32;;;;;;;20.90;93.52;102044.88;5013356;28;20041;-76
2023/07/10 06:08:36;;;;;;;11.05;4.07;;;;;;;21.02;90.48;102042.16;5026479;28;20036;-76
2023/07/10 06:11:03;;;;;;;13.80;4.78;;;;;;;20.75;89.97;102037.22;5027222;28;20673;-76
2023/07/10 06:13:29;;;;;;;11.38;4.75;;;;;;;20.46;92.88;102041.66;5013990;28;20055;-76
2023/07/10 06:15:56;;;;;;;8.02;4.30;;;;;;;20.18;93.35;102038.78;5029225;28;20037;-76
2023/07/10 06:18:22;;;;;;;11.93;4.97;;;;;;;20.01;95.13;102046.72;5013895;28;20030;-76
2023/07/10 06:20:52;;;;;;;11.00;4.68;;;;;;;19.83;96.01;102034.03;5029116;28;20029;-76
2023/07/10 06:23:17;;;;;;;9.75;3.38;;;;;;;19.74;95.15;102043.56;5022442;28;20026;-76
2023/07/10 06:25:44;;;;;;;10.57;3.83;;;;;;;19.67;96.17;102047.16;5010181;28;20149;-76
2023/07/10 06:28:10;;;;;;;10.13;4.60;;;;;;;19.77;96.89;102046.63;5013371;28;20034;-73
2023/07/10 06:30:42;;;;;;;9.15;3.63;;;;;;;19.79;96.19;102051.81;5009426;28;20068;-74
2023/07/10 06:33:08;;;;;;;12.50;4.68;;;;;;;19.62;94.06;102051.56;5014336;28;20033;-74
2023/07/10 06:35:33;;;;;;;9.23;4.60;;;;;;;19.57;94.69;102048.72;5027567;28;20037;-74
2023/07/10 06:37:58;;;;;;;8.45;4.40;;;;;;;19.51;95.34;102055.06;5028948;28;20393;-75
2023/07/10 06:40:24;;;;;;;11.50;5.63;;;;;;;19.49;95.98;102063.38;5028420;28;20060;-76
2023/07/10 06:42:49;;;;;;;13.38;4.38;;;;;;;19.46;96.17;102056.53;5027513;28;20029;-74
2023/07/10 06:45:15;;;;;;;9.45;4.50;;;;;;;19.55;96.78;102072.50;5028825;28;20381;-74
2023/07/10 06:47:45;;;;;;;9.98;4.38;;;;;;;19.55;96.72;102064.38;5016031;28;20187;-73
2023/07/10 06:50:13;;;;;;;11.55;4.25;;;;;;;19.59;95.33;102071.81;5025677;28;20446;-74
2023/07/10 06:52:40;;;;;;;7.43;4.60;;;;;;;19.63;96.79;102067.59;5022688;28;20117;-74
2023/07/10 06:55:08;;;;;;;6.18;3.58;;;;;;;19.65;96.58;102070.09;5008211;28;20684;-74
2023/07/10 06:57:34;;;;;;;12.00;4.32;;;;;;;19.72;95.96;102076.25;5008176;28;20374;-74
2023/07/10 06:59:59;;;;;;;8.30;4.30;;;;;;;19.72;94.89;102076.25;5009760;28;20030;-74
2023/07/10 07:02:25;;;;;;;9.80;3.75;;;;;;;19.67;93.05;102070.69;5009822;28;20068;-74
2023/07/10 07:04:50;;;;;;;9.25;4.85;;;;;;;19.66;91.60;102078.00;5009752;28;20512;-74
2023/07/10 07:07:16;;;;;;;8.20;4.57;;;;;;;19.67;92.73;102079.63;5009529;28;20038;-75
2023/07/10 07:09:43;;;;;;;7.93;4.43;;;;;;;19.68;92.75;102084.03;5009715;28;20469;-73
2023/07/10 07:12:09;;;;;;;13.07;5.10;;;;;;;19.68;93.41;102073.19;5010115;28;20033;-74
2023/07/10 07:14:35;;;;;;;9.18;4.78;;;;;;;19.75;93.26;102069.56;5009375;28;20585;-73
2023/07/10 07:17:00;;;;;;;11.32;4.38;;;;;;;19.82;96.31;102065.72;5009659;28;20109;-73
2023/07/10 07:19:25;;;;;;;9.52;3.40;;;;;;;19.92;93.49;102070.59;5013211;28;20033;-73
2023/07/10 07:21:51;;;;;;;11.60;4.03;;;;;;;19.96;90.78;102068.25;5028212;28;20029;-74
2023/07/10 07:24:16;;;;;;;14.73;4.38;;;;;;;19.97;90.33;102068.03;5019430;28;20030;-73
2023/07/10 07:26:42;;;;;;;14.77;4.03;;;;;;;19.99;89.54;102065.06;5013545;28;20034;-75
2023/07/10 07:29:07;;;;;;;13.13;4.35;;;;;;;19.99;88.33;102078.59;5013350;28;20041;-74
2023/07/10 07:31:33;;;;;;;11.20;3.42;;;;;;;20.02;89.88;102073.56;5014189;28;20437;-77
2023/07/10 07:33:58;;;;;;;8.15;3.17;;;;;;;20.06;89.41;102080.16;5012831;28;20042;-76
2023/07/10 07:36:24;;;;;;;5.97;3.50;;;;;;;20.14;89.64;102090.69;5012699;28;20112;-75
2023/07/10 07:38:49;;;;;;;11.18;4.15;;;;;;;20.14;89.38;102082.56;5013719;28;20053;-76
2023/07/10 07:41:15;;;;;;;8.75;3.65;;;;;;;20.17;90.62;102081.25;5012736;28;20421;-76
2023/07/10 07:43:41;;;;;;;9.02;3.95;;;;;;;20.26;90.71;102081.78;5014035;28;20029;-77
2023/07/10 07:46:06;;;;;;;13.57;5.85;;;;;;;20.31;88.19;102092.75;5011713;28;20057;-75
2023/07/10 07:48:31;;;;;;;10.38;4.47;;;;;;;20.34;88.52;102084.97;5012487;28;20080;-76
2023/07/10 07:50:59;;;;;;;9.85;4.15;;;;;;;20.33;88.56;102086.06;5012376;28;20076;-76
2023/07/10 07:53:27;;;;;;;9.98;4.72;;;;;;;20.45;89.67;102093.38;5019333;28;20704;-76
2023/07/10 07:55:52;;;;;;;9.50;3.92;;;;;;;20.47;89.64;102091.25;5035675;28;20047;-77
2023/07/10 07:58:18;;;;;;;8.27;4.18;;;;;;;20.50;89.52;102086.19;5036955;28;20017;-76
2023/07/10 08:00:43;;;;;;;8.45;3.92;;;;;;;20.60;90.84;102098.41;5037106;28;20025;-75
2023/07/10 08:03:10;;;;;;;8.80;3.83;;;;;;;20.71;89.02;102089.44;5035298;28;20060;-79
2023/07/10 08:05:35;;;;;;;4.50;2.22;;;;;;;20.81;84.03;102088.88;5035927;28;20119;-78
2023/07/10 08:08:02;;;;;;;7.85;2.75;;;;;;;20.82;79.88;102088.63;5036886;28;20057;-78
2023/07/10 08:10:32;;;;;;;5.13;2.17;;;;;;;20.77;79.73;102075.75;5010457;28;20033;-79
2023/07/10 08:12:57;;;;;;;9.68;2.53;;;;;;;20.95;79.85;102079.44;5038846;28;20029;-80
2023/07/10 08:15:23;;;;;;;4.38;2.45;;;;;;;21.07;81.66;102082.97;5039991;28;20052;-77
2023/07/10 08:17:48;;;;;;;6.70;1.98;;;;;;;21.25;77.53;102087.44;5042628;28;20392;-71
2023/07/10 08:20:13;;;;;;;13.38;3.15;;;;;;;21.91;76.91;102073.59;5021410;28;20405;-78
2023/07/10 08:22:39;;;;;;;6.93;2.38;;;;;;;24.06;70.11;102075.72;5040106;28;20513;-79
2023/07/10 08:25:06;;;;;;;8.13;3.33;;;;;;;26.32;62.69;102066.03;5043123;28;20044;-78
2023/07/10 08:27:31;;;;;;;7.32;2.00;;;;;;;27.97;55.07;102065.28;5023868;28;20152;-78
2023/07/10 08:29:57;;;;;;;6.40;1.88;;;;;;;29.16;49.59;102072.22;5040308;28;20199;-78
2023/07/10 08:32:22;;;;;;;8.80;3.05;;;;;;;29.64;46.21;102072.19;5046792;28;20029;-78
2023/07/10 08:34:47;;;;;;;7.88;2.35;;;;;;;30.13;44.63;102075.59;5049222;28;20029;-79
2023/07/10 08:37:13;;;;;;;5.03;2.53;;;;;;;30.54;42.51;102077.69;5035688;28;20087;-78
2023/07/10 08:39:38;;;;;;;4.53;1.63;;;;;;;31.05;42.57;102065.75;5045687;28;20051;-78
2023/07/10 08:42:14;;;;;;;11.18;1.95;;;;;;;31.50;41.78;102073.38;5023895;28;20037;-78
2023/07/10 08:44:40;;;;;;;12.38;2.78;;;;;;;32.16;39.10;102074.63;5036964;28;20028;-78
2023/07/10 08:47:22;;;;;;;7.10;2.20;;;;;;;32.37;40.18;102079.63;5018969;28;20492;-79
2023/07/10 08:49:55;;;;;;;5.18;1.33;;;;;;;32.66;37.68;102074.47;5046032;28;20032;-79
2023/07/10 08:52:49;;;;;;;9.38;2.40;;;;;;;32.74;41.04;102065.41;5045738;28;20027;-78
2023/07/10 08:55:39;;;;;;;5.60;2.30;;;;;;;32.54;37.83;102063.19;5049303;28;20432;-79
2023/07/10 08:58:04;;;;;;;5.88;1.85;;;;;;;32.85;36.39;102068.69;5034197;28;20162;-79
2023/07/10 09:00:40;;;;;;;6.10;2.28;;;;;;;33.04;36.02;102060.19;5044905;28;20088;-78
2023/07/10 09:03:12;;;;;;;9.00;1.92;;;;;;;33.34;36.98;102063.19;5022156;28;20499;-79
2023/07/10 09:05:43;;;;;;;6.85;1.95;;;;;;;33.63;35.18;102059.03;5039210;28;20477;-79
2023/07/10 09:08:14;;;;;;;6.25;1.63;;;;;;;33.11;34.28;102068.00;5039234;28;20453;-79
2023/07/10 09:10:46;;;;;;;6.73;2.43;;;;;;;31.40;37.30;102072.47;5043462;28;20120;-78
2023/07/10 09:13:24;;;;;;;4.65;1.70;;;;;;;29.60;42.21;102060.09;5035686;28;20078;-78
2023/07/10 09:15:55;;;;;;;7.47;1.60;;;;;;;28.22;45.03;102066.19;5013375;28;20480;-79
2023/07/10 09:18:27;;;;;;;6.50;1.45;;;;;;;27.36;45.43;102073.84;5043540;28;20112;-78
2023/07/10 09:20:58;;;;;;;4.93;1.50;;;;;;;26.42;47.70;102072.31;5038124;28;20056;-79
2023/07/10 09:23:33;;;;;;;5.82;1.88;;;;;;;25.76;50.96;102073.03;5043625;28;20024;-78
2023/07/10 09:26:18;;;;;;;9.27;2.40;;;;;;;25.42;55.36;102071.81;5034771;28;20037;-78
2023/07/10 09:29:07;;;;;;;5.15;2.15;;;;;;;25.21;55.86;102065.44;5040842;28;20029;-78
2023/07/10 09:31:38;;;;;;;3.80;2.03;;;;;;;25.07;55.40;102062.31;5034056;28;20025;-78
2023/07/10 09:34:03;;;;;;;4.78;1.92;;;;;;;24.89;55.42;102058.16;5031514;28;20443;-78
2023/07/10 09:36:28;;;;;;;4.72;2.28;;;;;;;24.83;55.62;102062.72;5032648;28;20025;-77
2023/07/10 09:38:56;;;;;;;6.35;2.28;;;;;;;24.73;56.12;102065.38;5019838;28;20033;-78
2023/07/10 09:41:27;;;;;;;5.07;2.08;;;;;;;24.83;55.33;102064.63;5029091;28;20110;-79
2023/07/10 09:44:04;;;;;;;5.88;2.00;;;;;;;24.81;54.93;102064.91;5035745;28;20065;-78
2023/07/10 09:46:36;;;;;;;6.10;1.73;;;;;;;24.75;56.29;102060.50;5031341;28;20480;-78
2023/07/10 09:49:10;;;;;;;5.50;2.00;;;;;;;24.65;56.63;102063.13;5043407;28;20040;-78
2023/07/10 09:51:36;;;;;;;4.18;1.98;;;;;;;24.69;55.82;102070.56;5020951;28;20480;-78
2023/07/10 09:54:06;;;;;;;6.57;2.05;;;;;;;24.79;54.94;102066.25;5035554;28;20132;-78
2023/07/10 09:56:37;;;;;;;4.90;1.92;;;;;;;24.77;55.54;102060.25;5031355;28;20029;-78
2023/07/10 09:59:14;;;;;;;5.47;2.13;;;;;;;25.01;56.92;102056.00;5042392;28;20376;-71
2023/07/10 10:01:40;;;;;;;11.07;2.30;;;;;;;24.96;55.38;102060.63;5041329;28;20108;-77
2023/07/10 10:04:05;;;;;;;4.20;1.80;;;;;;;25.03;53.85;102062.03;5040741;28;20480;-78
2023/07/10 10:06:31;;;;;;;8.05;2.95;;;;;;;24.95;54.55;102067.19;5037756;28;20037;-77
2023/07/10 10:08:56;;;;;;;10.02;2.55;;;;;;;24.94;55.05;102060.88;5030295;28;20025;-78
2023/07/10 10:11:37;;;;;;;3.35;1.92;;;;;;;25.02;55.63;102065.00;5039910;28;20037;-79
2023/07/10 10:14:10;;;;;;;6.78;1.80;;;;;;;24.98;54.20;102061.19;5046018;28;20392;-78
2023/07/10 10:16:38;;;;;;;5.47;2.00;;;;;;;24.89;55.91;102058.97;5031809;28;20103;-78
2023/07/10 10:19:18;;;;;;;5.57;1.83;;;;;;;24.74;56.34;102050.66;5033590;28;20376;-77
2023/07/10 10:21:44;;;;;;;5.57;2.00;;;;;;;24.73;57.46;102051.75;5033054;28;20037;-78
2023/07/10 10:24:11;;;;;;;6.30;2.65;;;;;;;24.78;59.94;102050.94;5016508;28;20033;-78
2023/07/10 10:27:18;;;;;;;6.30;1.85;;;;;;;24.91;59.30;102058.69;5045972;28;20111;-77
2023/07/10 10:30:11;;;;;;;7.70;2.67;;;;;;;24.84;57.48;102058.94;4955483;28;20502;-78
2023/07/10 10:32:54;;;;;;;11.02;3.17;;;;;;;24.90;57.76;102057.03;5029602;28;20111;-78
2023/07/10 10:35:29;;;;;;;6.32;2.17;;;;;;;24.81;57.28;102055.88;5040547;28;20032;-78
2023/07/10 10:38:23;;;;;;;5.72;2.47;;;;;;;24.54;57.49;102054.06;5041529;28;20100;-78
2023/07/10 10:41:00;;;;;;;10.07;3.10;;;;;;;24.75;58.44;102054.22;5040398;28;20088;-78
2023/07/10 10:43:31;;;;;;;7.32;3.10;;;;;;;24.96;59.25;102050.53;5046329;28;20043;-78
2023/07/10 10:46:02;;;;;;;8.52;2.90;;;;;;;25.21;58.27;102051.78;5036792;28;20535;-78
2023/07/10 10:48:46;;;;;;;5.10;2.50;;;;;;;25.20;55.58;102061.88;5038957;28;20119;-78
2023/07/10 10:51:22;;;;;;;4.65;2.35;;;;;;;25.06;53.47;102057.97;5034638;28;20029;-78
2023/07/10 10:53:50;;;;;;;3.88;2.10;;;;;;;25.28;54.61;102055.06;5038454;28;20594;-78
2023/07/10 10:56:21;;;;;;;9.48;4.70;;;;;;;25.31;53.86;102055.38;5040114;28;20547;-78
2023/07/10 10:59:01;;;;;;;3.97;1.45;;;;;;;25.49;51.54;102053.25;5041585;28;20017;-78
2023/07/10 11:01:31;;;;;;;6.05;1.80;;;;;;;25.53;53.30;102054.38;5042059;28;20108;-78
2023/07/10 11:04:18;;;;;;;6.18;2.20;;;;;;;25.74;54.22;102042.41;5017099;28;20095;-78
2023/07/10 11:06:53;;;;;;;8.68;2.28;;;;;;;25.93;53.57;102061.06;5033299;28;20121;-78
2023/07/10 11:09:55;;;;;;;4.45;1.73;;;;;;;25.76;53.59;102064.00;5040599;28;20364;-79
2023/07/10 11:12:24;;;;;;;5.20;2.40;;;;;;;25.34;54.06;102064.97;4932088;29;20594;-76
2023/07/10 11:14:55;;;;;;;5.85;2.63;;;;;;;25.50;56.52;102054.91;5015376;28;20041;-78
2023/07/10 11:17:21;;;;;;;5.57;1.63;;;;;;;25.49;55.42;102058.72;5033737;28;20068;-76
2023/07/10 11:19:48;;;;;;;8.80;2.35;;;;;;;25.43;53.35;102059.78;5029856;28;20021;-77
2023/07/10 11:22:32;;;;;;;4.80;2.00;;;;;;;25.51;53.88;102062.00;5012451;28;20038;-78
2023/07/10 11:25:01;;;;;;;5.40;2.35;;;;;;;25.20;54.08;102053.69;5028730;28;20044;-77